createdAt,value
2022-10-08T00:01:32.555Z,1.60
2022-10-08T00:03:59.395Z,1.35
2022-10-08T00:06:29.979Z,0.95
2022-10-08T00:09:02.961Z,1.38
2022-10-08T00:11:33.130Z,0.88
2022-10-08T00:14:02.134Z,0.77
2022-10-08T00:16:34.557Z,0.77
2022-10-08T00:19:04.232Z,1.10
2022-10-08T00:21:33.969Z,0.95
2022-10-08T00:24:01.638Z,0.77
2022-10-08T00:26:31.197Z,0.82
2022-10-08T00:29:00.364Z,1.33
2022-10-08T00:31:32.538Z,1.08
2022-10-08T00:34:00.923Z,1.30
2022-10-08T00:36:31.742Z,0.93
2022-10-08T00:39:00.305Z,0.93
2022-10-08T00:41:29.764Z,1.17
2022-10-08T00:43:58.601Z,0.98
2022-10-08T00:46:35.998Z,1.15
2022-10-08T00:49:10.436Z,0.88
2022-10-08T00:51:41.853Z,1.20
2022-10-08T00:54:08.611Z,1.65
2022-10-08T00:56:36.631Z,1.35
2022-10-08T00:59:04.021Z,1.88
2022-10-08T01:01:31.042Z,1.40
2022-10-08T01:04:03.228Z,1.65
2022-10-08T01:06:48.634Z,1.30
2022-10-08T01:09:19.756Z,0.90
2022-10-08T01:11:51.677Z,0.90
2022-10-08T01:14:46.052Z,1.17
2022-10-08T01:17:27.198Z,1.23
2022-10-08T01:23:05.214Z,1.25
2022-10-08T01:25:40.915Z,1.20
2022-10-08T01:28:32.518Z,1.30
2022-10-08T01:31:24.223Z,0.90
2022-10-08T01:34:08.713Z,1.20
2022-10-08T01:36:43.323Z,1.17
2022-10-08T01:39:13.588Z,1.05
2022-10-08T01:41:43.129Z,1.23
2022-10-08T01:44:21.461Z,0.75
2022-10-08T01:46:50.143Z,1.30
2022-10-08T01:49:22.086Z,1.27
2022-10-08T01:51:55.447Z,1.33
2022-10-08T01:54:25.100Z,0.57
2022-10-08T01:56:52.903Z,0.65
2022-10-08T01:59:27.863Z,1.25
2022-10-08T02:02:11.105Z,0.77
2022-10-08T02:04:37.914Z,1.00
2022-10-08T02:07:31.110Z,0.82
2022-10-08T02:10:03.739Z,1.15
2022-10-08T02:12:31.633Z,1.00
2022-10-08T02:14:58.934Z,1.00
2022-10-08T02:17:28.668Z,0.73
2022-10-08T02:20:23.106Z,0.90
2022-10-08T02:22:59.066Z,1.33
2022-10-08T02:25:44.230Z,0.75
2022-10-08T02:28:20.905Z,0.77
2022-10-08T02:33:44.531Z,1.08
2022-10-08T02:36:13.462Z,1.30
2022-10-08T02:38:44.982Z,1.00
2022-10-08T02:41:12.086Z,1.52
2022-10-08T02:43:42.785Z,0.90
2022-10-08T02:46:20.748Z,1.05
2022-10-08T02:49:09.607Z,1.00
2022-10-08T02:51:39.887Z,0.98
2022-10-08T02:54:07.722Z,0.60
2022-10-08T02:56:40.405Z,0.90
2022-10-08T02:59:07.531Z,0.80
2022-10-08T03:01:46.973Z,1.00
2022-10-08T03:04:41.356Z,1.35
2022-10-08T03:07:08.637Z,1.08
2022-10-08T03:09:38.935Z,1.10
2022-10-08T03:12:06.182Z,1.00
2022-10-08T03:14:39.514Z,0.93
2022-10-08T03:17:07.108Z,0.95
2022-10-08T03:19:34.451Z,1.23
2022-10-08T03:22:02.257Z,0.95
2022-10-08T03:24:29.238Z,0.80
2022-10-08T03:26:55.969Z,1.42
2022-10-08T03:29:22.692Z,0.98
2022-10-08T03:31:49.982Z,1.35
2022-10-08T03:34:17.063Z,0.80
2022-10-08T03:36:43.804Z,0.50
2022-10-08T03:39:11.453Z,0.50
2022-10-08T03:41:38.472Z,1.13
2022-10-08T03:44:09.239Z,0.88
2022-10-08T03:46:36.110Z,0.93
2022-10-08T03:49:02.894Z,1.08
2022-10-08T03:51:29.807Z,1.10
2022-10-08T03:53:57.647Z,0.80
2022-10-08T03:56:24.988Z,0.90
2022-10-08T03:58:56.953Z,0.90
2022-10-08T04:01:24.875Z,0.80
2022-10-08T04:03:51.700Z,0.80
2022-10-08T04:06:19.210Z,0.82
2022-10-08T04:08:45.957Z,1.27
2022-10-08T04:11:14.893Z,0.70
2022-10-08T04:13:42.434Z,0.57
2022-10-08T04:16:12.831Z,0.77
2022-10-08T04:18:40.027Z,0.93
2022-10-08T04:21:09.258Z,0.63
2022-10-08T04:23:39.514Z,1.02
2022-10-08T04:26:07.064Z,0.70
2022-10-08T04:28:38.618Z,0.95
2022-10-08T04:31:11.404Z,0.82
2022-10-08T04:33:38.430Z,0.80
2022-10-08T04:36:09.561Z,0.90
2022-10-08T04:38:36.458Z,0.88
2022-10-08T04:41:17.092Z,0.60
2022-10-08T04:43:44.825Z,0.90
2022-10-08T04:46:14.379Z,1.00
2022-10-08T04:48:46.614Z,0.68
2022-10-08T04:51:13.451Z,0.85
2022-10-08T04:53:40.224Z,1.05
2022-10-08T04:56:09.753Z,0.90
2022-10-08T04:58:36.547Z,1.00
2022-10-08T05:01:05.229Z,1.30
2022-10-08T05:03:35.388Z,1.83
2022-10-08T05:06:02.136Z,0.90
2022-10-08T05:08:29.287Z,1.58
2022-10-08T05:10:55.973Z,0.77
2022-10-08T05:13:22.680Z,0.88
2022-10-08T05:15:49.541Z,1.45
2022-10-08T05:18:16.587Z,0.93
2022-10-08T05:20:43.389Z,0.88
2022-10-08T05:23:10.155Z,0.73
2022-10-08T05:25:36.997Z,1.50
2022-10-08T05:28:04.848Z,1.08
2022-10-08T05:30:31.727Z,0.90
2022-10-08T05:32:58.505Z,0.73
2022-10-08T05:35:25.385Z,0.93
2022-10-08T05:37:52.111Z,1.17
2022-10-08T05:40:20.566Z,1.10
2022-10-08T05:42:47.611Z,1.23
2022-10-08T05:45:14.743Z,1.02
2022-10-08T05:47:41.521Z,0.98
2022-10-08T05:50:08.810Z,1.00
2022-10-08T05:52:35.544Z,1.35
2022-10-08T05:55:02.351Z,1.00
2022-10-08T05:57:29.059Z,1.00
2022-10-08T05:59:55.834Z,1.30
2022-10-08T06:02:22.600Z,1.33
2022-10-08T06:04:50.032Z,0.90
2022-10-08T06:07:17.042Z,1.50
2022-10-08T06:09:45.143Z,1.00
2022-10-08T06:12:13.828Z,1.33
2022-10-08T06:14:40.965Z,1.05
2022-10-08T06:17:07.793Z,0.95
2022-10-08T06:19:37.689Z,1.20
2022-10-08T06:22:05.085Z,0.80
2022-10-08T06:24:31.982Z,1.63
2022-10-08T06:26:58.949Z,0.93
2022-10-08T06:29:25.807Z,1.42
2022-10-08T06:31:52.690Z,1.38
2022-10-08T06:34:19.640Z,1.00
2022-10-08T06:36:46.583Z,1.00
2022-10-08T06:39:15.447Z,1.00
2022-10-08T06:41:42.569Z,1.20
2022-10-08T06:44:12.822Z,0.80
2022-10-08T06:46:39.775Z,1.00
2022-10-08T06:49:06.663Z,1.15
2022-10-08T06:51:34.148Z,0.63
2022-10-08T06:54:07.516Z,1.00
2022-10-08T06:56:36.590Z,1.17
2022-10-08T06:59:04.532Z,1.23
2022-10-08T07:01:33.920Z,0.65
2022-10-08T07:04:02.369Z,1.00
2022-10-08T07:06:29.765Z,0.82
2022-10-08T07:08:58.582Z,0.60
2022-10-08T07:11:26.091Z,1.35
2022-10-08T07:13:54.610Z,1.02
2022-10-08T07:16:22.949Z,1.40
2022-10-08T07:18:51.927Z,1.13
2022-10-08T07:21:21.232Z,1.05
2022-10-08T07:23:48.875Z,0.90
2022-10-08T07:26:26.874Z,1.00
2022-10-08T07:28:57.866Z,1.10
2022-10-08T07:31:31.290Z,1.02
2022-10-08T07:33:59.608Z,1.05
2022-10-08T07:36:27.226Z,1.10
2022-10-08T07:38:55.772Z,0.93
2022-10-08T07:41:23.243Z,1.30
2022-10-08T07:43:52.072Z,1.23
2022-10-08T07:46:18.816Z,1.20
2022-10-08T07:48:45.552Z,1.30
2022-10-08T07:51:15.512Z,0.80
2022-10-08T07:53:43.226Z,0.77
2022-10-08T07:56:13.213Z,0.98
2022-10-08T07:58:40.333Z,1.15
2022-10-08T08:01:10.123Z,0.90
2022-10-08T08:03:36.950Z,1.17
2022-10-08T08:06:12.173Z,1.20
2022-10-08T08:08:40.518Z,0.77
2022-10-08T08:11:09.048Z,1.10
2022-10-08T08:13:37.662Z,0.82
2022-10-08T08:16:10.014Z,1.30
2022-10-08T08:18:39.006Z,0.93
2022-10-08T08:21:14.453Z,0.65
2022-10-08T08:23:44.121Z,0.95
2022-10-08T08:26:36.052Z,1.30
2022-10-08T08:29:05.957Z,1.30
2022-10-08T08:31:37.761Z,1.23
2022-10-08T08:34:11.464Z,1.05
2022-10-08T08:36:40.560Z,0.88
2022-10-08T08:39:09.048Z,1.20
2022-10-08T08:41:58.190Z,1.00
2022-10-08T08:44:35.075Z,1.10
2022-10-08T08:47:06.452Z,1.02
2022-10-08T08:49:47.566Z,1.15
2022-10-08T08:54:49.615Z,1.10
2022-10-08T08:57:26.399Z,1.17
2022-10-08T08:59:55.010Z,1.88
2022-10-08T09:02:26.941Z,0.98
2022-10-08T09:04:58.106Z,1.48
2022-10-08T09:07:28.248Z,1.20
2022-10-08T09:09:56.233Z,1.10
2022-10-08T09:12:26.785Z,0.82
2022-10-08T09:14:55.955Z,0.90
2022-10-08T09:17:30.238Z,1.52
2022-10-08T09:19:57.322Z,1.00
2022-10-08T09:22:25.215Z,1.15
2022-10-08T09:24:59.774Z,1.17
2022-10-08T09:27:48.179Z,0.95
2022-10-08T09:30:29.882Z,0.73
2022-10-08T09:32:59.885Z,0.95
2022-10-08T09:35:27.009Z,1.02
2022-10-08T09:37:55.869Z,1.00
2022-10-08T09:40:25.299Z,1.15
2022-10-08T09:43:07.397Z,0.63
2022-10-08T09:45:39.631Z,0.80
2022-10-08T09:48:13.529Z,0.80
2022-10-08T09:50:51.570Z,0.80
2022-10-08T09:53:19.169Z,0.90
2022-10-08T09:56:05.797Z,0.85
2022-10-08T09:58:34.485Z,0.57
2022-10-08T10:01:14.405Z,0.73
2022-10-08T10:03:51.617Z,0.75
2022-10-08T10:06:26.628Z,0.75
2022-10-08T10:09:01.004Z,0.60
2022-10-08T10:11:39.849Z,0.50
2022-10-08T10:14:26.712Z,0.50
2022-10-08T10:16:58.786Z,0.63
2022-10-08T10:19:44.488Z,0.70
2022-10-08T10:22:16.744Z,0.68
2022-10-08T10:24:48.775Z,0.40
2022-10-08T10:27:37.399Z,0.50
2022-10-08T10:30:13.794Z,0.70
2022-10-08T10:32:47.520Z,0.38
2022-10-08T10:35:25.200Z,0.63
2022-10-08T10:38:00.983Z,0.50
2022-10-08T10:40:36.322Z,0.50
2022-10-08T10:43:18.315Z,0.75
2022-10-08T10:45:50.514Z,0.40
2022-10-08T10:48:17.311Z,0.70
2022-10-08T10:51:04.148Z,0.30
2022-10-08T10:53:34.007Z,0.95
2022-10-08T10:56:08.366Z,0.60
2022-10-08T10:58:51.892Z,0.73
2022-10-08T11:01:46.873Z,0.73
2022-10-08T11:04:16.633Z,0.60
2022-10-08T11:07:02.926Z,0.63
2022-10-08T11:09:38.617Z,0.43
2022-10-08T11:12:23.557Z,0.40
2022-10-08T11:15:28.855Z,0.50
2022-10-08T11:18:01.546Z,0.50
2022-10-08T11:21:00.440Z,0.40
2022-10-08T11:23:57.487Z,0.47
2022-10-08T11:26:35.064Z,0.55
2022-10-08T11:29:17.150Z,0.45
2022-10-08T11:31:46.855Z,0.55
2022-10-08T11:34:29.864Z,0.68
2022-10-08T11:37:16.840Z,0.40
2022-10-08T11:40:06.876Z,0.38
2022-10-08T11:42:48.616Z,1.02
2022-10-08T11:45:31.932Z,0.68
2022-10-08T11:48:00.679Z,0.85
2022-10-08T11:50:34.220Z,0.63
2022-10-08T11:53:09.843Z,0.65
2022-10-08T11:55:37.737Z,0.65
2022-10-08T11:58:08.355Z,0.40
2022-10-08T12:01:17.631Z,0.70
2022-10-08T12:04:11.863Z,0.52
2022-10-08T12:06:39.209Z,0.55
2022-10-08T12:09:07.209Z,0.40
2022-10-08T12:11:37.507Z,0.40
2022-10-08T12:14:29.687Z,0.47
2022-10-08T12:16:59.170Z,0.85
2022-10-08T12:19:35.111Z,0.55
2022-10-08T12:22:02.933Z,0.60
2022-10-08T12:24:38.707Z,0.60
2022-10-08T12:27:17.799Z,0.30
2022-10-08T12:30:03.353Z,0.70
2022-10-08T12:32:40.152Z,0.47
2022-10-08T12:35:40.707Z,0.85
2022-10-08T12:38:18.612Z,0.32
2022-10-08T12:41:16.512Z,0.65
2022-10-08T12:44:08.883Z,0.50
2022-10-08T12:46:38.578Z,0.50
2022-10-08T12:49:38.723Z,0.60
2022-10-08T12:52:11.285Z,0.30
2022-10-08T12:54:40.505Z,0.80
2022-10-08T12:57:10.243Z,0.60
2022-10-08T12:59:39.703Z,0.45
2022-10-08T13:02:27.537Z,0.70
2022-10-08T13:04:54.377Z,0.50
2022-10-08T13:07:28.342Z,0.85
2022-10-08T13:10:00.516Z,0.82
2022-10-08T13:12:27.578Z,0.50
2022-10-08T13:15:08.811Z,0.50
2022-10-08T13:17:37.013Z,0.47
2022-10-08T13:20:12.094Z,0.70
2022-10-08T13:22:38.914Z,0.47
2022-10-08T13:25:06.275Z,0.45
2022-10-08T13:27:33.969Z,0.45
2022-10-08T13:30:30.190Z,0.35
2022-10-08T13:33:05.131Z,0.60
2022-10-08T13:35:33.406Z,0.47
2022-10-08T13:38:00.649Z,0.30
2022-10-08T13:40:27.467Z,0.30
2022-10-08T13:42:58.946Z,0.40
2022-10-08T13:45:30.945Z,0.22
2022-10-08T13:47:59.193Z,0.25
2022-10-08T13:50:25.918Z,0.30
2022-10-08T13:52:55.030Z,0.30
2022-10-08T13:55:26.719Z,0.20
2022-10-08T13:57:54.649Z,0.25
2022-10-08T14:00:21.808Z,0.22
2022-10-08T14:02:49.312Z,0.05
2022-10-08T14:05:16.018Z,0.25
2022-10-08T14:07:42.849Z,0.20
2022-10-08T14:10:12.828Z,0.40
2022-10-08T14:12:39.791Z,0.40
2022-10-08T14:15:07.362Z,0.30
2022-10-08T14:17:34.286Z,0.50
2022-10-08T14:20:00.992Z,0.50
2022-10-08T14:22:27.831Z,0.30
2022-10-08T14:24:55.854Z,0.50
2022-10-08T14:27:22.592Z,0.57
2022-10-08T14:29:49.281Z,0.40
2022-10-08T14:32:16.065Z,0.28
2022-10-08T14:34:42.754Z,0.30
2022-10-08T14:37:10.615Z,0.30
2022-10-08T14:39:37.302Z,0.30
2022-10-08T14:42:04.139Z,0.45
2022-10-08T14:44:30.841Z,0.22
2022-10-08T14:46:57.628Z,0.20
2022-10-08T14:49:24.291Z,0.32
2022-10-08T14:51:51.065Z,0.30
2022-10-08T14:54:18.226Z,0.25
2022-10-08T14:56:46.249Z,0.38
2022-10-08T14:59:12.969Z,0.30
2022-10-08T15:01:40.004Z,0.40
2022-10-08T15:04:07.377Z,0.88
2022-10-08T15:06:34.607Z,0.50
2022-10-08T15:09:01.377Z,0.50
2022-10-08T15:11:28.158Z,0.40
2022-10-08T15:13:55.638Z,0.47
2022-10-08T15:16:22.526Z,0.50
2022-10-08T15:18:49.298Z,0.40
2022-10-08T15:21:16.135Z,0.50
2022-10-08T15:23:42.800Z,0.52
2022-10-08T15:26:17.634Z,0.55
2022-10-08T15:28:46.343Z,0.57
2022-10-08T15:31:17.858Z,0.40
2022-10-08T15:33:46.613Z,0.60
2022-10-08T15:36:34.477Z,0.50
2022-10-08T15:39:14.912Z,1.00
2022-10-08T15:41:43.344Z,0.60
2022-10-08T15:44:30.777Z,0.70
2022-10-08T15:47:02.021Z,0.70
2022-10-08T15:49:37.485Z,0.80
2022-10-08T15:52:05.980Z,0.80
2022-10-08T15:54:36.708Z,0.75
2022-10-08T15:57:03.855Z,1.30
2022-10-08T15:59:30.962Z,0.80
2022-10-08T16:01:58.440Z,0.68
2022-10-08T16:04:25.329Z,0.70
2022-10-08T16:06:52.084Z,0.95
2022-10-08T16:09:20.418Z,0.85
2022-10-08T16:11:48.164Z,0.80
2022-10-08T16:14:15.592Z,0.75
2022-10-08T16:16:42.680Z,1.00
2022-10-08T16:19:18.502Z,0.65
2022-10-08T16:21:47.235Z,0.80
2022-10-08T16:24:14.324Z,0.52
2022-10-08T16:26:42.410Z,0.60
2022-10-08T16:29:12.892Z,0.55
2022-10-08T16:31:41.396Z,0.98
2022-10-08T16:34:12.956Z,0.55
2022-10-08T16:36:39.714Z,0.57
2022-10-08T16:39:07.195Z,0.63
2022-10-08T16:41:35.249Z,0.88
2022-10-08T16:44:12.638Z,0.93
2022-10-08T16:46:42.270Z,0.60
2022-10-08T16:49:21.109Z,0.55
2022-10-08T16:51:51.580Z,0.50
2022-10-08T16:54:18.544Z,0.50
2022-10-08T16:56:46.120Z,0.65
2022-10-08T16:59:19.133Z,0.50
2022-10-08T17:01:47.685Z,0.77
2022-10-08T17:04:15.521Z,0.40
2022-10-08T17:06:43.299Z,0.52
2022-10-08T17:09:11.626Z,0.57
2022-10-08T17:11:38.902Z,0.43
2022-10-08T17:14:07.853Z,0.57
2022-10-08T17:16:35.992Z,0.57
2022-10-08T17:19:03.628Z,0.70
2022-10-08T17:21:32.143Z,0.82
2022-10-08T17:23:59.667Z,0.80
2022-10-08T17:26:27.781Z,0.77
2022-10-08T17:28:54.790Z,0.40
2022-10-08T17:31:24.785Z,0.70
2022-10-08T17:33:51.668Z,0.60
2022-10-08T17:36:19.948Z,0.65
2022-10-08T17:38:49.329Z,0.63
2022-10-08T17:41:21.300Z,0.93
2022-10-08T17:43:49.049Z,1.17
2022-10-08T17:46:18.462Z,0.98
2022-10-08T17:48:45.778Z,1.75
2022-10-08T17:51:17.927Z,1.60
2022-10-08T17:53:45.276Z,3.00
2022-10-08T17:56:13.464Z,2.53
2022-10-08T17:58:41.312Z,2.42
2022-10-08T18:01:10.920Z,2.95
2022-10-08T18:03:38.888Z,2.33
2022-10-08T18:06:06.108Z,2.05
2022-10-08T18:08:34.862Z,2.15
2022-10-08T18:11:06.806Z,2.38
2022-10-08T18:13:34.287Z,1.70
2022-10-08T18:16:09.549Z,1.60
2022-10-08T18:18:36.401Z,1.65
2022-10-08T18:21:04.067Z,1.75
2022-10-08T18:23:32.711Z,1.67
2022-10-08T18:26:19.941Z,1.80
2022-10-08T18:28:58.122Z,1.00
2022-10-08T18:31:27.496Z,1.77
2022-10-08T18:33:59.871Z,1.70
2022-10-08T18:36:28.826Z,1.92
2022-10-08T18:39:04.332Z,1.52
2022-10-08T18:41:38.130Z,1.73
2022-10-08T18:44:06.346Z,1.90
2022-10-08T18:46:35.035Z,2.08
2022-10-08T18:49:02.457Z,2.15
2022-10-08T18:51:30.170Z,2.20
2022-10-08T18:53:58.151Z,3.13
2022-10-08T18:56:28.817Z,3.40
2022-10-08T18:59:01.714Z,2.08
2022-10-08T19:01:33.805Z,2.50
2022-10-08T19:04:02.444Z,2.03
2022-10-08T19:06:31.853Z,2.00
2022-10-08T19:08:59.818Z,2.63
2022-10-08T19:11:33.653Z,2.20
2022-10-08T19:14:01.120Z,2.03
2022-10-08T19:16:28.020Z,2.00
2022-10-08T19:18:56.756Z,1.60
2022-10-08T19:21:24.555Z,1.25
2022-10-08T19:23:51.419Z,1.88
2022-10-08T19:26:18.436Z,1.88
2022-10-08T19:28:47.579Z,1.50
2022-10-08T19:31:25.632Z,1.48
2022-10-08T19:33:55.288Z,1.52
2022-10-08T19:36:23.103Z,1.00
2022-10-08T19:38:53.837Z,1.00
2022-10-08T19:41:21.087Z,1.30
2022-10-08T19:43:48.021Z,1.17
2022-10-08T19:46:14.870Z,0.80
2022-10-08T19:48:41.679Z,1.00
2022-10-08T19:51:10.158Z,1.23
2022-10-08T19:53:37.730Z,1.95
2022-10-08T19:56:08.244Z,1.27
2022-10-08T19:58:36.031Z,1.10
2022-10-08T20:01:06.164Z,1.00
2022-10-08T20:03:33.382Z,1.47
2022-10-08T20:06:08.474Z,0.75
2022-10-08T20:08:35.842Z,1.00
2022-10-08T20:11:14.048Z,0.80
2022-10-08T20:13:41.899Z,0.88
2022-10-08T20:16:11.265Z,0.80
2022-10-08T20:18:38.668Z,0.85
2022-10-08T20:21:12.539Z,0.80
2022-10-08T20:23:40.134Z,1.10
2022-10-08T20:26:29.769Z,0.73
2022-10-08T20:29:08.078Z,0.90
2022-10-08T20:31:38.195Z,0.80
2022-10-08T20:34:07.685Z,0.70
2022-10-08T20:36:34.491Z,0.55
2022-10-08T20:39:01.336Z,1.05
2022-10-08T20:41:31.201Z,0.60
2022-10-08T20:44:03.168Z,1.20
2022-10-08T20:46:31.305Z,0.70
2022-10-08T20:48:58.381Z,0.90
2022-10-08T20:51:27.444Z,0.82
2022-10-08T20:54:00.193Z,0.60
2022-10-08T20:56:28.453Z,0.60
2022-10-08T20:58:55.265Z,0.47
2022-10-08T21:01:27.482Z,0.82
2022-10-08T21:03:54.984Z,1.00
2022-10-08T21:06:25.024Z,1.20
2022-10-08T21:08:54.082Z,1.50
2022-10-08T21:11:23.173Z,1.33
2022-10-08T21:13:50.077Z,1.80
2022-10-08T21:16:26.416Z,0.80
2022-10-08T21:19:00.658Z,1.40
2022-10-08T21:21:29.198Z,1.00
2022-10-08T21:23:56.393Z,1.02
2022-10-08T21:26:31.451Z,1.10
2022-10-08T21:29:00.474Z,0.98
2022-10-08T21:31:29.437Z,1.48
2022-10-08T21:33:56.832Z,1.00
2022-10-08T21:36:26.646Z,1.00
2022-10-08T21:38:53.924Z,0.77
2022-10-08T21:41:22.810Z,1.20
2022-10-08T21:43:54.793Z,1.38
2022-10-08T21:46:23.845Z,0.88
2022-10-08T21:49:02.506Z,1.42
2022-10-08T21:51:31.166Z,1.20
2022-10-08T21:53:59.171Z,1.00
2022-10-08T21:56:28.632Z,0.90
2022-10-08T21:58:58.384Z,1.00
2022-10-08T22:01:31.776Z,1.13
2022-10-08T22:04:04.196Z,1.52
2022-10-08T22:06:33.040Z,1.35
2022-10-08T22:09:03.538Z,1.33
2022-10-08T22:11:30.354Z,1.20
2022-10-08T22:13:57.077Z,1.60
2022-10-08T22:16:25.142Z,1.40
2022-10-08T22:18:52.299Z,1.38
2022-10-08T22:21:21.495Z,1.38
2022-10-08T22:23:49.757Z,1.10
2022-10-08T22:26:21.934Z,0.82
2022-10-08T22:28:49.198Z,1.10
2022-10-08T22:31:17.206Z,0.90
2022-10-08T22:33:44.179Z,1.60
2022-10-08T22:36:16.425Z,1.45
2022-10-08T22:38:44.241Z,1.40
2022-10-08T22:41:22.141Z,0.95
2022-10-08T22:43:49.140Z,1.10
2022-10-08T22:46:21.582Z,1.30
2022-10-08T22:48:48.867Z,1.30
2022-10-08T22:51:18.428Z,1.20
2022-10-08T22:53:45.750Z,1.10
2022-10-08T22:56:15.397Z,1.20
2022-10-08T22:58:43.205Z,1.25
2022-10-08T23:01:11.793Z,0.95
2022-10-08T23:03:39.278Z,1.10
2022-10-08T23:06:21.148Z,0.93
2022-10-08T23:08:51.453Z,0.82
2022-10-08T23:11:18.188Z,0.80
2022-10-08T23:13:45.726Z,0.80
2022-10-08T23:16:15.369Z,1.05
2022-10-08T23:18:44.517Z,1.13
2022-10-08T23:21:14.515Z,1.27
2022-10-08T23:23:42.067Z,1.08
2022-10-08T23:26:09.263Z,1.00
2022-10-08T23:28:37.068Z,1.13
2022-10-08T23:31:08.310Z,1.20
2022-10-08T23:33:38.173Z,1.40
2022-10-08T23:36:16.932Z,1.23
2022-10-08T23:38:43.876Z,0.93
2022-10-08T23:41:11.740Z,1.58
2022-10-08T23:43:43.034Z,1.25
2022-10-08T23:46:11.280Z,0.90
2022-10-08T23:48:38.428Z,0.70
2022-10-08T23:51:05.640Z,1.08
2022-10-08T23:53:33.717Z,1.42
2022-10-08T23:56:00.477Z,0.85
2022-10-08T23:58:27.504Z,0.93
